Time;durP1;ratioP1;P1;durP2;ratioP2;P2;SDS_P1;SDS_P2;PMS_P1;PMS_P2;Temp;Humidity;BMP_temperature;BMP_pressure;BME280_temperature;BME280_humidity;BME280_pressure;Samples;Min_cycle;Max_cycle;Signal;HPM_P1;HPM_P2
2022/01/01 00:03:33;;;;;;;21.77;10.98;;;;;;;14.98;100.00;101415.66;8405591;27;20131;-63
2022/01/01 00:07:35;;;;;;;23.23;10.80;;;;;;;14.96;100.00;101414.91;8412501;27;20112;-63
2022/01/01 00:11:35;;;;;;;23.55;11.43;;;;;;;14.92;100.00;101410.78;8410244;27;20055;-63
2022/01/01 00:15:36;;;;;;;24.55;10.07;;;;;;;14.89;100.00;101417.38;8413118;27;20370;-64
2022/01/01 00:19:36;;;;;;;24.97;10.23;;;;;;;14.88;100.00;101425.72;8412442;27;20036;-63
2022/01/01 00:23:36;;;;;;;27.92;11.85;;;;;;;14.88;100.00;101426.53;8410425;27;20266;-63
2022/01/01 00:27:37;;;;;;;27.95;12.13;;;;;;;14.94;100.00;101428.69;8421468;27;20031;-63
2022/01/01 00:31:37;;;;;;;27.80;13.25;;;;;;;14.88;100.00;101426.53;8406459;27;20127;-63
2022/01/01 00:35:40;;;;;;;33.20;12.57;;;;;;;14.82;100.00;101418.97;8420449;27;20028;-63
2022/01/01 00:39:40;;;;;;;22.92;11.90;;;;;;;14.80;100.00;101429.16;8417100;27;20059;-63
2022/01/01 00:43:41;;;;;;;25.90;11.63;;;;;;;14.81;100.00;101433.59;8401410;28;20123;-63
2022/01/01 00:47:43;;;;;;;31.40;13.07;;;;;;;14.96;100.00;101429.41;8416376;28;20036;-63
2022/01/01 00:51:44;;;;;;;29.67;13.30;;;;;;;14.98;100.00;101429.25;8398535;28;20035;-63
2022/01/01 00:55:44;;;;;;;27.83;12.18;;;;;;;14.94;100.00;101423.22;8418130;27;20647;-63
2022/01/01 00:59:46;;;;;;;22.45;11.18;;;;;;;14.97;100.00;101425.66;8433463;27;20059;-63
2022/01/01 01:03:47;;;;;;;22.30;11.23;;;;;;;14.94;100.00;101427.81;8415307;28;20416;-63
2022/01/01 01:07:47;;;;;;;25.25;10.20;;;;;;;14.88;100.00;101432.00;8413823;27;20074;-63
2022/01/01 01:11:51;;;;;;;31.70;11.45;;;;;;;14.91;100.00;101426.25;8409427;27;20049;-63
2022/01/01 01:15:52;;;;;;;22.00;10.65;;;;;;;14.83;100.00;101426.16;8415788;27;20040;-63
2022/01/01 01:19:52;;;;;;;27.20;9.88;;;;;;;14.78;100.00;101431.16;8415541;27;20060;-63
2022/01/01 01:23:54;;;;;;;18.87;8.23;;;;;;;14.78;100.00;101425.72;8414116;27;20059;-63
2022/01/01 01:27:55;;;;;;;19.75;7.78;;;;;;;14.82;99.52;101421.69;8413503;27;20285;-63
2022/01/01 01:31:55;;;;;;;21.42;8.20;;;;;;;14.83;99.11;101428.00;8434415;27;20048;-63
2022/01/01 01:35:56;;;;;;;18.08;7.30;;;;;;;14.81;99.40;101425.41;8412370;27;20078;-63
2022/01/01 01:39:56;;;;;;;19.30;6.85;;;;;;;14.75;99.46;101431.44;8414763;27;20040;-63
2022/01/01 01:43:59;;;;;;;16.13;7.00;;;;;;;14.73;99.99;101438.88;8415631;27;20048;-63
2022/01/01 01:47:59;;;;;;;23.92;7.60;;;;;;;14.76;100.00;101433.16;8412215;27;20040;-63
2022/01/01 01:51:59;;;;;;;20.63;7.40;;;;;;;14.80;100.00;101445.50;8399645;27;20341;-63
2022/01/01 01:56:00;;;;;;;19.80;8.05;;;;;;;14.79;100.00;101446.47;8390459;28;20470;-63
2022/01/01 02:00:01;;;;;;;18.20;7.55;;;;;;;14.83;100.00;101449.78;8416410;27;20047;-63
2022/01/01 02:04:02;;;;;;;25.67;8.35;;;;;;;14.80;100.00;101456.38;8406631;28;20567;-63
2022/01/01 02:08:04;;;;;;;20.30;8.30;;;;;;;14.80;100.00;101455.50;8417545;27;20487;-63
2022/01/01 02:12:07;;;;;;;22.98;8.20;;;;;;;14.78;100.00;101452.94;8406753;28;20123;-63
2022/01/01 02:16:36;;;;;;;25.63;7.47;;;;;;;14.86;100.00;101455.81;8430637;27;20040;-63
2022/01/01 02:20:33;;;;;;;15.25;7.40;;;;;;;14.95;99.52;101460.34;8421486;27;20047;-63
2022/01/01 02:24:34;;;;;;;15.25;6.88;;;;;;;14.91;99.75;101453.47;8429680;27;20423;-63
2022/01/01 02:28:34;;;;;;;15.07;6.45;;;;;;;14.84;100.00;101448.75;8415840;27;20036;-63
2022/01/01 02:32:35;;;;;;;14.63;6.35;;;;;;;14.78;100.00;101450.22;8414240;28;20063;-63
2022/01/01 02:36:40;;;;;;;15.00;6.18;;;;;;;14.81;99.67;101452.66;8429987;27;20476;-63
2022/01/01 02:40:40;;;;;;;;;;;;;;;14.89;98.66;101460.97;8420421;27;20080;-63
2022/01/01 02:44:43;;;;;;;16.47;5.40;;;;;;;14.90;98.49;101457.22;8411302;28;19920;-63
2022/01/01 02:48:45;;;;;;;15.60;5.35;;;;;;;14.89;98.28;101458.25;8407529;28;20025;-63
2022/01/01 02:52:47;;;;;;;15.10;4.65;;;;;;;14.87;98.10;101457.50;8415039;27;20028;-63
2022/01/01 02:56:48;;;;;;;11.77;4.90;;;;;;;14.83;98.35;101477.88;8422251;27;20032;-63
2022/01/01 03:00:49;;;;;;;12.77;4.43;;;;;;;14.82;98.19;101469.84;8432192;27;20640;-63
2022/01/01 03:04:49;;;;;;;18.48;4.90;;;;;;;14.82;97.92;101476.13;8425254;27;20105;-63
2022/01/01 03:08:52;;;;;;;14.20;4.90;;;;;;;14.75;98.10;101464.09;8415832;27;20064;-63
2022/01/01 03:12:52;;;;;;;9.43;4.30;;;;;;;14.76;97.72;101471.25;8410079;28;20507;-63
2022/01/01 03:16:53;;;;;;;14.38;4.15;;;;;;;14.75;97.16;101468.69;8434890;27;20470;-63
2022/01/01 03:20:53;;;;;;;7.07;4.00;;;;;;;14.73;96.96;101463.38;8443258;27;20032;-63
2022/01/01 03:24:53;;;;;;;12.73;4.15;;;;;;;14.79;95.51;101468.25;8433290;27;20127;-63
2022/01/01 03:28:54;;;;;;;11.93;3.55;;;;;;;14.86;94.37;101472.13;8413703;28;20547;-63
2022/01/01 03:32:54;;;;;;;9.18;4.43;;;;;;;14.84;94.05;101468.69;8409554;28;20040;-63
2022/01/01 03:36:54;;;;;;;7.95;3.92;;;;;;;14.84;94.50;101468.69;8421512;27;20036;-63
2022/01/01 03:40:55;;;;;;;15.23;4.72;;;;;;;14.90;93.85;101473.56;8442619;27;20043;-63
2022/01/01 03:44:56;;;;;;;14.50;4.75;;;;;;;14.83;94.32;101466.97;8442808;27;20071;-63
2022/01/01 03:48:56;;;;;;;12.60;4.13;;;;;;;14.79;94.53;101462.81;8442898;27;20085;-63
2022/01/01 03:52:57;;;;;;;11.07;3.38;;;;;;;14.83;93.83;101460.66;8432007;27;20071;-63
2022/01/01 03:56:58;;;;;;;11.82;3.38;;;;;;;14.78;94.09;101454.78;8406164;27;20051;-63
2022/01/01 04:00:58;;;;;;;11.52;3.42;;;;;;;14.76;93.83;101446.75;8406510;27;20488;-63
2022/01/01 04:04:59;;;;;;;15.23;3.47;;;;;;;14.80;93.04;101429.16;8390037;27;20044;-63
2022/01/01 04:08:59;;;;;;;12.00;4.38;;;;;;;14.76;94.14;101438.59;8407061;27;20040;-63
2022/01/01 04:13:00;;;;;;;10.80;3.53;;;;;;;14.71;93.74;101435.47;8408022;27;20043;-63
2022/01/01 04:17:02;;;;;;;11.45;3.10;;;;;;;14.67;94.04;101434.00;8420412;27;20036;-63
2022/01/01 04:21:02;;;;;;;13.48;3.53;;;;;;;14.55;94.51;101432.44;8431818;27;20043;-63
2022/01/01 04:25:03;;;;;;;13.75;4.30;;;;;;;14.56;94.75;101436.03;8441556;27;20043;-63
2022/01/01 04:29:04;;;;;;;10.38;3.95;;;;;;;14.57;94.13;101426.84;8441949;27;20039;-63
2022/01/01 04:33:05;;;;;;;11.20;3.05;;;;;;;14.60;93.54;101432.88;8441511;27;20040;-63
2022/01/01 04:37:11;;;;;;;11.82;3.25;;;;;;;14.59;93.25;101433.91;8427648;27;20107;-63
2022/01/01 04:41:15;;;;;;;11.02;3.55;;;;;;;14.57;93.15;101426.84;8409942;27;20032;-63
2022/01/01 04:45:15;;;;;;;11.60;3.17;;;;;;;14.53;93.98;101437.19;8406330;27;20040;-63
2022/01/01 04:49:15;;;;;;;11.85;3.33;;;;;;;14.46;94.23;101449.66;8412470;27;20031;-63
2022/01/01 04:53:18;;;;;;;11.10;3.28;;;;;;;14.48;94.39;101452.22;8422900;27;20487;-63
2022/01/01 04:57:18;;;;;;;11.63;3.25;;;;;;;14.50;93.63;101448.38;8417492;27;20024;-63
2022/01/01 05:01:19;;;;;;;13.32;3.28;;;;;;;14.45;94.00;101444.38;8406356;27;20531;-63
2022/01/01 05:05:19;;;;;;;10.88;2.80;;;;;;;14.38;94.55;101454.06;8424668;27;20563;-63
2022/01/01 05:09:20;;;;;;;8.13;2.47;;;;;;;14.35;94.91;101454.34;8406457;28;20090;-63
2022/01/01 05:13:20;;;;;;;11.73;2.80;;;;;;;14.38;94.40;101449.50;8417118;27;20411;-63
2022/01/01 05:17:21;;;;;;;9.43;2.55;;;;;;;14.39;93.70;101456.66;8412519;27;20128;-63
2022/01/01 05:21:21;;;;;;;10.30;2.88;;;;;;;14.41;93.50;101460.09;8418498;27;20035;-63
2022/01/01 05:25:21;;;;;;;12.65;2.95;;;;;;;14.43;93.56;101466.28;8441137;27;20036;-63
2022/01/01 05:29:22;;;;;;;11.82;3.10;;;;;;;14.48;92.67;101472.13;8446207;27;20073;-63
2022/01/01 05:33:22;;;;;;;11.57;2.70;;;;;;;14.46;92.76;101471.44;8435005;27;20044;-63
2022/01/01 05:37:23;;;;;;;10.23;2.83;;;;;;;14.42;92.97;101467.25;8430300;27;20296;-63
2022/01/01 05:41:23;;;;;;;9.80;2.63;;;;;;;14.48;92.07;101455.81;8429528;28;20036;-63
2022/01/01 05:45:24;;;;;;;12.45;2.55;;;;;;;14.43;92.56;101463.56;8428399;28;20048;-63
2022/01/01 05:49:24;;;;;;;15.77;2.97;;;;;;;14.42;92.86;101450.94;8430465;27;20155;-63
2022/01/01 05:53:25;;;;;;;8.13;2.55;;;;;;;14.42;92.56;101448.22;8451090;27;20040;-63
2022/01/01 05:57:25;;;;;;;14.18;3.08;;;;;;;14.40;92.12;101458.41;8424101;27;20116;-63
2022/01/01 06:01:26;;;;;;;9.82;2.90;;;;;;;14.41;91.63;101454.66;8412531;28;20115;-63
2022/01/01 06:05:27;;;;;;;8.02;2.28;;;;;;;14.49;90.79;101468.41;8411383;28;20162;-63
2022/01/01 06:09:28;;;;;;;8.90;2.40;;;;;;;14.47;91.33;101464.97;8426285;27;20419;-63
2022/01/01 06:13:28;;;;;;;11.35;2.80;;;;;;;14.43;91.29;101458.13;8446047;27;20044;-63
2022/01/01 06:17:28;;;;;;;10.27;2.40;;;;;;;14.46;90.92;101457.81;8444223;27;20113;-63
2022/01/01 06:21:29;;;;;;;13.15;2.42;;;;;;;14.41;91.25;101459.22;8445493;27;20064;-63
2022/01/01 06:25:29;;;;;;;9.60;2.50;;;;;;;14.40;91.33;101469.28;8445881;27;20047;-63
2022/01/01 06:29:30;;;;;;;7.70;2.22;;;;;;;14.29;91.98;101472.13;8445439;27;20138;-63
2022/01/01 06:33:30;;;;;;;13.57;2.47;;;;;;;14.30;91.87;101484.72;8445601;27;20028;-63
2022/01/01 06:37:31;;;;;;;16.30;2.55;;;;;;;14.29;91.60;101488.44;8431222;27;20472;-63
2022/01/01 06:41:31;;;;;;;8.88;2.05;;;;;;;14.33;90.94;101492.59;8435596;27;20058;-63
2022/01/01 06:45:32;;;;;;;10.18;2.45;;;;;;;14.34;90.62;101494.31;8421214;27;20082;-63
2022/01/01 06:49:32;;;;;;;11.82;2.60;;;;;;;14.33;90.48;101500.75;8420460;28;20040;-63
2022/01/01 06:53:32;;;;;;;8.02;2.67;;;;;;;14.33;90.74;101506.19;8414121;27;20028;-63
2022/01/01 06:57:33;;;;;;;7.07;2.20;;;;;;;14.24;91.59;101504.31;8411235;27;20039;-63
2022/01/01 07:01:33;;;;;;;8.98;2.78;;;;;;;14.26;91.41;101502.31;8415567;27;20102;-63
2022/01/01 07:05:34;;;;;;;7.63;2.00;;;;;;;14.26;91.80;101498.72;8425727;27;20388;-63
2022/01/01 07:09:34;;;;;;;8.75;2.20;;;;;;;14.21;91.80;101490.13;8425092;27;20115;-63
2022/01/01 07:13:34;;;;;;;8.32;2.30;;;;;;;14.24;90.71;101496.16;8442726;27;20051;-63
2022/01/01 07:17:35;;;;;;;11.50;2.47;;;;;;;14.27;90.85;101498.59;8443850;27;20066;-63
2022/01/01 07:21:35;;;;;;;10.07;2.60;;;;;;;14.28;90.59;101505.78;8443602;27;20047;-63
2022/01/01 07:25:36;;;;;;;6.15;2.17;;;;;;;14.25;90.90;101503.34;8442294;27;20036;-63
2022/01/01 07:29:36;;;;;;;11.57;2.58;;;;;;;14.24;91.26;101517.91;8436100;27;20560;-63
2022/01/01 07:33:37;;;;;;;6.90;2.10;;;;;;;14.26;90.60;101515.06;8410644;28;20067;-63
2022/01/01 07:37:37;;;;;;;9.32;2.45;;;;;;;14.31;90.01;101529.09;8438097;27;20059;-63
2022/01/01 07:41:38;;;;;;;6.32;2.05;;;;;;;14.36;89.72;101538.56;8442952;27;20399;-63
2022/01/01 07:45:39;;;;;;;10.32;1.92;;;;;;;14.38;89.23;101525.69;8443016;27;20123;-63
2022/01/01 07:49:39;;;;;;;8.05;2.05;;;;;;;14.45;88.96;101532.28;8442272;27;20031;-63
2022/01/01 07:53:40;;;;;;;10.25;2.20;;;;;;;14.43;88.96;101517.97;8412924;28;20050;-63
2022/01/01 07:57:40;;;;;;;7.30;2.13;;;;;;;14.40;90.04;101531.00;8422496;27;20506;-63
2022/01/01 08:01:43;;;;;;;9.23;2.08;;;;;;;14.42;89.45;101516.22;8414097;28;20047;-63
2022/01/01 08:05:43;;;;;;;8.68;2.17;;;;;;;14.53;89.05;101524.28;8410409;27;20507;-63
2022/01/01 08:09:43;;;;;;;9.95;2.42;;;;;;;14.49;89.55;101511.09;8411098;27;20032;-63
2022/01/01 08:13:44;;;;;;;12.93;3.05;;;;;;;14.53;89.45;101515.25;8404109;28;20530;-63
2022/01/01 08:17:44;;;;;;;9.17;2.13;;;;;;;14.56;89.49;101512.25;8404425;27;20059;-63
2022/01/01 08:21:45;;;;;;;5.25;2.20;;;;;;;14.61;89.46;101518.97;8426355;27;20267;-63
2022/01/01 08:25:45;;;;;;;8.90;2.55;;;;;;;14.64;89.46;101517.84;8424155;27;20036;-63
2022/01/01 08:29:45;;;;;;;8.95;2.28;;;;;;;14.66;89.09;101513.09;8398655;28;20088;-63
2022/01/01 08:33:46;;;;;;;10.15;2.92;;;;;;;14.77;88.47;101522.00;8405380;27;20043;-63
2022/01/01 08:37:46;;;;;;;6.13;2.37;;;;;;;14.83;88.13;101526.88;8397601;27;20035;-63
2022/01/01 08:41:47;;;;;;;8.93;2.65;;;;;;;14.79;88.57;101524.59;8402897;27;20809;-63
2022/01/01 08:45:48;;;;;;;9.93;3.22;;;;;;;14.81;88.93;101523.44;8412866;28;20496;-63
2022/01/01 08:49:52;;;;;;;10.73;2.70;;;;;;;14.87;89.22;101525.59;8424260;27;20498;-63
2022/01/01 08:53:52;;;;;;;6.95;2.85;;;;;;;15.08;89.28;101520.84;8425328;27;20408;-63
2022/01/01 08:57:52;;;;;;;7.78;2.67;;;;;;;15.74;85.74;101510.81;8423803;27;20068;-63
2022/01/01 09:01:53;;;;;;;6.72;1.90;;;;;;;15.62;85.67;101518.31;8416505;28;20040;-63
2022/01/01 09:05:53;;;;;;;6.20;2.45;;;;;;;15.68;85.50;101514.97;8424464;27;20532;-63
2022/01/01 09:09:55;;;;;;;5.88;2.70;;;;;;;15.50;86.33;101524.94;8427725;27;20571;-63
2022/01/01 09:13:55;;;;;;;5.43;2.58;;;;;;;15.31;87.69;101521.38;8437744;27;20097;-63
2022/01/01 09:17:56;;;;;;;6.78;3.03;;;;;;;15.19;88.57;101530.72;8416104;28;20036;-63
2022/01/01 09:21:56;;;;;;;10.52;2.95;;;;;;;15.41;88.10;101528.53;8435330;27;20065;-63
2022/01/01 09:25:57;;;;;;;8.65;2.78;;;;;;;15.62;86.74;101526.47;8424883;27;20052;-63
2022/01/01 09:29:57;;;;;;;8.70;2.63;;;;;;;15.61;86.16;101511.13;8429425;27;20042;-63
2022/01/01 09:33:58;;;;;;;6.88;2.42;;;;;;;15.85;85.57;101526.13;8427643;27;20043;-63
2022/01/01 09:37:58;;;;;;;7.00;3.38;;;;;;;16.26;83.98;101525.63;8429670;27;20085;-63
2022/01/01 09:42:01;;;;;;;5.70;2.55;;;;;;;16.59;82.11;101522.28;8430061;27;20040;-63
2022/01/01 09:46:02;;;;;;;8.65;2.83;;;;;;;16.52;81.76;101527.50;8424118;27;20118;-63
2022/01/01 09:50:06;;;;;;;7.07;2.70;;;;;;;16.23;83.17;101517.75;8429620;27;20038;-63
2022/01/01 09:54:08;;;;;;;7.30;2.40;;;;;;;16.36;82.99;101510.03;8429872;27;20039;-63
2022/01/01 09:58:09;;;;;;;5.72;2.75;;;;;;;16.39;82.81;101537.91;8436510;27;20515;-63
2022/01/01 10:02:10;;;;;;;4.82;2.13;;;;;;;16.96;79.62;101539.38;8423568;27;20452;-63
2022/01/01 10:06:13;;;;;;;9.85;2.60;;;;;;;17.24;79.07;101535.53;8443231;27;20060;-63
2022/01/01 10:10:20;;;;;;;5.00;2.55;;;;;;;17.46;78.57;101532.31;8396985;28;20035;-63
2022/01/01 10:14:33;;;;;;;10.00;2.60;;;;;;;17.76;76.94;101520.88;8418930;28;20427;-63
2022/01/01 10:18:36;;;;;;;9.48;2.53;;;;;;;17.40;77.90;101498.25;8418781;27;20388;-63
2022/01/01 10:22:38;;;;;;;6.57;2.17;;;;;;;17.26;78.77;101506.19;8423588;27;20416;-64
2022/01/01 10:27:42;;;;;;;11.07;2.35;;;;;;;16.92;80.23;101513.38;8408080;27;20514;-63
2022/01/01 10:30:58;;;;;;;7.72;2.20;;;;;;;16.61;81.32;101506.59;8436181;27;20044;-63
2022/01/01 10:35:00;;;;;;;7.68;3.05;;;;;;;16.35;83.23;101502.88;8440070;27;20047;-63
2022/01/01 10:39:11;;;;;;;9.55;2.50;;;;;;;16.45;83.54;101499.09;8429203;27;20035;-63
2022/01/01 10:43:16;;;;;;;4.50;1.88;;;;;;;16.86;82.83;101509.41;8438658;27;20048;-63
2022/01/01 10:47:25;;;;;;;5.43;2.83;;;;;;;16.84;81.72;101507.84;8439413;28;20184;-63
2022/01/01 10:51:36;;;;;;;4.68;2.30;;;;;;;16.61;82.77;101498.41;8411066;28;20035;-63
2022/01/01 10:55:40;;;;;;;3.80;2.00;;;;;;;16.51;83.98;101486.69;8389056;28;20044;-63
2022/01/01 10:59:40;;;;;;;7.47;1.90;;;;;;;16.55;84.20;101483.50;8403014;28;20042;-63
2022/01/01 11:03:43;;;;;;;5.53;2.40;;;;;;;16.57;84.32;101480.63;8412199;28;20032;-63
2022/01/01 11:07:52;;;;;;;4.55;2.25;;;;;;;16.88;82.74;101466.41;8442153;27;20040;-63
2022/01/01 11:11:59;;;;;;;5.22;2.10;;;;;;;17.13;82.26;101461.97;8433014;28;20036;-63
2022/01/01 11:16:02;;;;;;;7.05;2.20;;;;;;;17.34;80.75;101459.75;8433973;27;20050;-63
2022/01/01 11:20:05;;;;;;;6.82;1.88;;;;;;;17.26;80.75;101446.03;8435331;27;20075;-63
2022/01/01 11:24:07;;;;;;;5.88;2.08;;;;;;;16.76;82.69;101453.16;8436332;27;20039;-63
2022/01/01 11:28:10;;;;;;;8.23;1.95;;;;;;;17.25;81.26;101436.97;8438208;27;20388;-63
2022/01/01 11:32:14;;;;;;;4.93;1.80;;;;;;;17.74;79.66;101420.81;8434296;27;20122;-63
2022/01/01 11:36:20;;;;;;;3.63;2.08;;;;;;;17.56;79.97;101420.94;8436428;27;20247;-64
2022/01/01 11:40:20;;;;;;;5.53;2.05;;;;;;;17.27;81.16;101401.28;8419724;28;20407;-64
2022/01/01 11:44:37;;;;;;;5.93;2.90;;;;;;;17.59;82.85;101385.06;8419872;28;20098;-64
2022/01/01 11:48:45;;;;;;;6.93;2.60;;;;;;;18.50;78.56;101382.22;8400178;28;20054;-64
2022/01/01 11:52:45;;;;;;;2.92;1.70;;;;;;;19.06;76.34;101371.22;8410926;27;20044;-64
2022/01/01 12:00:58;;;;;;;7.95;1.85;;;;;;;18.80;76.62;101381.53;8414671;27;20392;-64
2022/01/01 12:05:17;;;;;;;4.15;1.52;;;;;;;18.81;77.29;101366.81;8410015;28;20043;-64
2022/01/01 12:09:18;;;;;;;4.18;2.10;;;;;;;18.83;76.44;101367.50;8410842;28;20040;-64
2022/01/01 12:13:18;;;;;;;2.97;1.67;;;;;;;18.49;76.83;101350.41;8395078;28;20056;-64
2022/01/01 12:17:18;;;;;;;3.28;1.80;;;;;;;18.06;79.34;101374.44;8366741;28;20127;-64
2022/01/01 12:21:21;;;;;;;3.28;1.50;;;;;;;17.70;81.98;101357.41;8394936;28;20060;-64
2022/01/01 12:25:25;;;;;;;3.95;1.85;;;;;;;17.54;82.02;101346.41;8395671;28;20114;-64
2022/01/01 12:29:27;;;;;;;4.20;1.70;;;;;;;17.21;83.13;101345.41;8395618;28;20279;-63
2022/01/01 12:33:50;;;;;;;4.18;1.48;;;;;;;17.34;83.81;101347.66;8394854;28;20492;-64
2022/01/01 12:38:05;;;;;;;4.18;2.05;;;;;;;17.26;84.61;101329.34;8391400;28;20040;-64
2022/01/01 12:42:26;;;;;;;5.03;2.00;;;;;;;17.01;84.93;101326.63;8364106;28;20041;-64
2022/01/01 12:46:30;;;;;;;2.75;1.45;;;;;;;17.08;84.67;101322.25;8371826;28;20032;-64
2022/01/01 12:50:30;;;;;;;5.43;1.73;;;;;;;16.98;84.56;101329.69;8386162;28;20033;-64
2022/01/01 12:54:31;;;;;;;3.47;1.35;;;;;;;16.97;84.31;101322.53;8344476;28;20532;-64
2022/01/01 12:58:34;;;;;;;4.45;1.40;;;;;;;17.14;84.36;101316.97;8367393;28;20048;-64
2022/01/01 13:02:35;;;;;;;4.37;1.53;;;;;;;17.20;83.98;101320.97;8374512;28;20036;-64
2022/01/01 13:06:39;;;;;;;3.33;1.08;;;;;;;17.05;84.20;101328.06;8386635;28;20763;-64
2022/01/01 13:10:40;;;;;;;4.88;1.23;;;;;;;16.94;84.76;101350.16;8365512;28;20080;-64
2022/01/01 13:14:40;;;;;;;3.53;1.13;;;;;;;16.93;84.10;101341.09;8351786;28;20040;-64
2022/01/01 13:18:41;;;;;;;3.63;1.77;;;;;;;16.87;86.07;101344.47;8349929;28;20211;-63
2022/01/01 13:22:41;;;;;;;2.40;1.27;;;;;;;16.79;85.91;101351.78;8335540;28;20388;-64
2022/01/01 13:26:43;;;;;;;2.15;1.30;;;;;;;16.64;86.85;101339.72;8342294;28;20528;-64
2022/01/01 13:30:45;;;;;;;3.10;1.20;;;;;;;16.69;86.65;101360.09;8344077;28;20041;-64
2022/01/01 13:34:53;;;;;;;2.72;1.35;;;;;;;16.59;86.70;101363.94;8352531;28;20060;-64
2022/01/01 13:38:54;;;;;;;3.70;1.60;;;;;;;16.33;87.29;101341.13;8365354;28;20047;-63
2022/01/01 13:43:07;;;;;;;2.35;1.35;;;;;;;16.20;88.89;101338.81;8338664;28;20123;-63
2022/01/01 13:47:12;;;;;;;3.15;1.50;;;;;;;16.24;90.61;101340.22;8357390;28;20492;-63
2022/01/01 13:51:14;;;;;;;2.50;1.55;;;;;;;16.10;91.16;101339.91;8349419;28;20045;-63
2022/01/01 13:55:24;;;;;;;3.38;1.58;;;;;;;16.11;90.94;101328.84;8354542;28;20048;-63
2022/01/01 13:59:28;;;;;;;4.80;2.25;;;;;;;16.01;90.70;101321.75;8346769;28;20076;-63
2022/01/01 14:03:29;;;;;;;3.15;2.15;;;;;;;15.92;90.96;101311.78;8342784;28;20041;-63
2022/01/01 14:07:30;;;;;;;3.90;2.05;;;;;;;15.91;91.24;101310.03;8362684;28;20040;-63
2022/01/01 14:11:33;;;;;;;3.40;1.60;;;;;;;15.94;91.07;101309.72;8363776;28;20567;-63
2022/01/01 14:15:37;;;;;;;3.25;1.80;;;;;;;15.76;92.21;101322.53;8345420;28;20044;-63
2022/01/01 14:19:38;;;;;;;2.30;1.73;;;;;;;15.76;92.75;101309.72;8353291;28;20072;-63
2022/01/01 14:23:40;;;;;;;4.28;1.75;;;;;;;15.77;92.94;101312.31;8354189;28;20040;-63
2022/01/01 14:27:40;;;;;;;3.03;1.60;;;;;;;15.69;92.80;101320.41;8365211;28;20052;-63
2022/01/01 14:31:42;;;;;;;5.07;2.08;;;;;;;15.69;92.81;101314.97;8347402;28;20136;-63
2022/01/01 14:35:42;;;;;;;4.00;1.88;;;;;;;15.66;93.13;101304.38;8354539;28;20377;-63
2022/01/01 14:39:45;;;;;;;4.22;2.53;;;;;;;15.55;93.69;101312.75;8345449;28;20045;-63
2022/01/01 14:43:45;;;;;;;5.30;2.88;;;;;;;15.53;94.54;101303.84;8344623;28;20382;-62
2022/01/01 14:48:02;;;;;;;5.55;2.55;;;;;;;15.56;94.32;101308.16;8319602;28;20040;-63
2022/01/01 14:52:30;;;;;;;3.28;2.05;;;;;;;15.53;94.25;101298.41;8336768;28;20075;-63
2022/01/01 14:56:43;;;;;;;5.95;2.78;;;;;;;15.41;94.36;101286.00;8342852;28;20150;-63
2022/01/01 15:00:47;;;;;;;4.78;2.75;;;;;;;15.36;95.00;101285.59;8353396;28;20044;-63
2022/01/01 15:04:48;;;;;;;5.30;2.50;;;;;;;15.24;96.14;101286.78;8357492;28;20716;-63
2022/01/01 15:08:52;;;;;;;3.25;2.60;;;;;;;15.20;96.81;101295.44;8355492;28;20078;-63
2022/01/01 15:12:54;;;;;;;4.72;2.80;;;;;;;15.05;97.57;101314.13;8358865;28;20032;-63
2022/01/01 15:16:57;;;;;;;5.43;2.63;;;;;;;15.01;97.86;101326.31;8351521;28;20032;-63
2022/01/01 15:21:02;;;;;;;4.68;2.92;;;;;;;14.77;99.70;101328.72;8358167;28;20044;-62
2022/01/01 15:25:03;;;;;;;10.23;5.93;;;;;;;14.71;100.00;101329.31;8328835;28;20305;-62
2022/01/01 15:29:15;;;;;;;8.32;4.05;;;;;;;14.69;99.45;101312.25;8347646;28;20040;-63
2022/01/01 15:33:23;;;;;;;5.57;2.50;;;;;;;14.71;98.71;101307.53;8330699;28;20049;-63
2022/01/01 15:37:26;;;;;;;3.65;2.58;;;;;;;14.60;99.51;101309.53;8333324;28;20049;-63
2022/01/01 15:41:34;;;;;;;5.43;2.90;;;;;;;14.46;100.00;101302.72;8323051;28;20098;-63
2022/01/01 15:45:35;;;;;;;5.85;3.05;;;;;;;14.23;100.00;101304.03;8338908;28;20044;-63
2022/01/01 15:49:36;;;;;;;7.55;3.70;;;;;;;14.04;100.00;101293.16;8338661;28;20037;-63
2022/01/01 15:53:37;;;;;;;7.72;4.25;;;;;;;14.04;100.00;101301.31;8326645;28;20040;-63
2022/01/01 15:57:55;;;;;;;5.15;3.63;;;;;;;13.92;100.00;101310.59;8337063;28;20132;-63
2022/01/01 16:02:07;;;;;;;5.30;3.75;;;;;;;13.76;100.00;101313.03;8336147;28;20155;-63
2022/01/01 16:06:11;;;;;;;6.43;3.50;;;;;;;13.72;100.00;101297.97;8320448;28;20033;-63
2022/01/01 16:10:13;;;;;;;4.88;4.07;;;;;;;13.63;100.00;101310.56;8312148;28;20575;-63
2022/01/01 16:14:15;;;;;;;5.00;3.20;;;;;;;13.60;100.00;101299.13;8327263;28;20073;-63
2022/01/01 16:18:21;;;;;;;9.65;4.55;;;;;;;13.59;100.00;101300.13;8343747;28;20041;-63
2022/01/01 16:22:22;;;;;;;4.43;3.47;;;;;;;13.58;100.00;101298.41;8342462;28;20503;-63
2022/01/01 16:26:23;;;;;;;5.53;4.28;;;;;;;13.54;100.00;101299.66;8327471;28;20142;-63
2022/01/01 16:30:34;;;;;;;6.78;4.80;;;;;;;13.54;100.00;101294.25;8321933;28;20041;-63
2022/01/01 16:34:35;;;;;;;5.15;4.32;;;;;;;13.52;100.00;101285.41;8331709;28;20094;-63
2022/01/01 16:38:36;;;;;;;5.68;3.83;;;;;;;13.39;100.00;101287.53;8325977;28;20130;-63
2022/01/01 16:42:55;;;;;;;6.35;4.15;;;;;;;13.33;100.00;101279.94;8338207;28;20048;-63
2022/01/01 16:47:09;;;;;;;6.93;4.57;;;;;;;13.31;100.00;101260.19;8351730;28;20413;-63
2022/01/01 16:51:12;;;;;;;10.63;4.60;;;;;;;13.26;100.00;101267.88;8337022;28;20505;-63
2022/01/01 16:55:19;;;;;;;7.32;4.38;;;;;;;13.18;100.00;101270.47;8353209;28;20423;-63
2022/01/01 16:59:20;;;;;;;7.43;5.15;;;;;;;13.19;100.00;101266.72;8348924;28;20134;-63
2022/01/01 17:03:45;;;;;;;9.95;5.40;;;;;;;13.09;100.00;101249.56;8348883;28;20565;-63
2022/01/01 17:07:46;;;;;;;7.88;5.70;;;;;;;13.05;100.00;101242.72;8352493;28;20491;-63
2022/01/01 17:11:46;;;;;;;12.23;6.95;;;;;;;12.96;100.00;101233.47;8362295;28;20422;-63
2022/01/01 17:15:58;;;;;;;16.13;7.45;;;;;;;12.91;100.00;101224.03;8362420;28;20036;-63
2022/01/01 17:20:05;;;;;;;12.23;7.38;;;;;;;12.78;100.00;101223.44;8361973;28;20045;-63
2022/01/01 17:24:17;;;;;;;10.65;5.78;;;;;;;12.73;100.00;101215.72;8360487;28;20409;-63
2022/01/01 17:28:27;;;;;;;10.27;5.50;;;;;;;12.68;100.00;101196.25;8333714;28;20045;-63
2022/01/01 17:32:29;;;;;;;7.90;5.20;;;;;;;12.56;100.00;101201.94;8340666;28;20048;-63
2022/01/01 17:37:08;;;;;;;9.80;5.45;;;;;;;12.62;100.00;101212.22;8352651;28;20155;-63
2022/01/01 17:41:04;;;;;;;7.80;5.13;;;;;;;12.62;100.00;101206.78;8353374;28;20052;-63
2022/01/01 17:45:05;;;;;;;10.43;5.05;;;;;;;12.67;100.00;101189.13;8358959;28;20834;-63
2022/01/01 17:49:07;;;;;;;10.65;5.45;;;;;;;12.67;100.00;101182.84;8361053;28;20075;-63
2022/01/01 17:53:09;;;;;;;8.68;4.60;;;;;;;12.65;100.00;101177.53;8335503;28;20052;-63
2022/01/01 17:57:11;;;;;;;8.07;4.20;;;;;;;12.63;100.00;101165.13;8351461;28;20041;-63
2022/01/01 18:01:13;;;;;;;9.25;5.28;;;;;;;12.74;100.00;101168.59;8337029;28;20647;-63
2022/01/01 18:05:13;;;;;;;9.35;5.32;;;;;;;12.99;100.00;101156.38;8340706;28;20488;-63
2022/01/01 18:09:17;;;;;;;7.88;4.38;;;;;;;13.10;100.00;101161.69;8339247;28;20401;-63
2022/01/01 18:13:25;;;;;;;8.47;4.27;;;;;;;13.13;100.00;101158.69;8356044;28;20136;-63
2022/01/01 18:17:37;;;;;;;8.40;5.90;;;;;;;13.03;100.00;101172.28;8358548;28;20082;-63
2022/01/01 18:21:43;;;;;;;8.45;4.93;;;;;;;12.94;100.00;101166.78;8348172;28;20110;-63
2022/01/01 18:25:52;;;;;;;9.57;4.20;;;;;;;12.87;100.00;101160.19;8356522;28;20428;-63
2022/01/01 18:29:57;;;;;;;9.65;5.38;;;;;;;12.73;100.00;101160.56;8349407;28;20425;-63
2022/01/01 18:33:58;;;;;;;29.83;14.65;;;;;;;12.61;100.00;101156.25;8358343;28;20759;-63
2022/01/01 18:37:59;;;;;;;14.25;8.65;;;;;;;12.52;100.00;101152.53;8333419;28;20675;-63
2022/01/01 18:42:01;;;;;;;12.27;7.28;;;;;;;12.44;100.00;101159.63;8352800;28;20041;-63
2022/01/01 18:46:01;;;;;;;9.82;5.50;;;;;;;12.40;100.00;101156.31;8353165;28;20037;-63